Time;durP1;ratioP1;P1;durP2;ratioP2;P2;SDS_P1;SDS_P2;PMS_P1;PMS_P2;Temp;Humidity;BMP_temperature;BMP_pressure;BME280_temperature;BME280_humidity;BME280_pressure;Samples;Min_cycle;Max_cycle;Signal;HPM_P1;HPM_P2
2023/07/02 00:02:16;;;;;;;3.27;2.30;;;;;;;16.82;100.00;99394.28;4983193;28;20230;-68
2023/07/02 00:04:42;;;;;;;3.47;1.90;;;;;;;16.88;100.00;99396.31;4989045;28;20226;-69
2023/07/02 00:07:08;;;;;;;5.17;2.30;;;;;;;16.72;100.00;99387.34;4992727;28;20182;-68
2023/07/02 00:09:33;;;;;;;3.03;2.37;;;;;;;16.62;100.00;99383.94;4993712;28;20183;-67
2023/07/02 00:11:59;;;;;;;4.60;2.50;;;;;;;16.49;100.00;99402.44;4997816;28;20230;-67
2023/07/02 00:14:24;;;;;;;2.67;2.47;;;;;;;16.40;100.00;99396.28;4995654;28;20285;-67
2023/07/02 00:16:49;;;;;;;10.93;2.50;;;;;;;16.27;100.00;99403.53;4998773;28;20198;-67
2023/07/02 00:19:15;;;;;;;4.43;2.50;;;;;;;16.27;100.00;99401.78;5000536;28;20190;-67
2023/07/02 00:21:41;;;;;;;3.33;2.47;;;;;;;16.20;100.00;99398.09;4995984;28;20768;-68
2023/07/02 00:24:09;;;;;;;2.90;2.03;;;;;;;16.14;100.00;99396.84;5001806;28;20203;-68
2023/07/02 00:26:35;;;;;;;4.30;2.03;;;;;;;16.05;100.00;99396.84;4993564;28;20234;-67
2023/07/02 00:29:00;;;;;;;5.40;2.60;;;;;;;15.87;100.00;99394.13;5003595;28;20623;-67
2023/07/02 00:31:26;;;;;;;2.90;2.10;;;;;;;15.79;100.00;99390.41;4980148;28;20243;-67
2023/07/02 00:33:51;;;;;;;4.27;2.17;;;;;;;15.67;100.00;99388.88;5006514;28;20210;-68
2023/07/02 00:36:16;;;;;;;4.47;2.30;;;;;;;15.54;100.00;99385.72;4996310;28;20194;-68
2023/07/02 00:38:44;;;;;;;3.13;2.07;;;;;;;15.43;100.00;99378.84;4999462;28;20189;-68
2023/07/02 00:41:10;;;;;;;3.07;1.90;;;;;;;15.34;100.00;99390.84;5000794;28;20223;-68
2023/07/02 00:43:35;;;;;;;3.90;2.10;;;;;;;15.29;100.00;99386.06;5006669;28;20562;-68
2023/07/02 00:46:02;;;;;;;4.60;2.00;;;;;;;15.24;100.00;99393.41;5002192;28;20202;-69
2023/07/02 00:48:28;;;;;;;2.33;1.87;;;;;;;15.12;100.00;99395.28;5002323;28;20186;-68
2023/07/02 00:50:53;;;;;;;3.80;2.17;;;;;;;15.05;100.00;99394.16;4991650;28;20310;-68
2023/07/02 00:53:18;;;;;;;2.80;2.20;;;;;;;14.91;100.00;99394.50;5002080;28;20255;-69
2023/07/02 00:55:44;;;;;;;3.93;2.40;;;;;;;14.87;100.00;99393.13;4993081;28;20615;-68
2023/07/02 00:58:09;;;;;;;3.53;2.10;;;;;;;14.87;100.00;99396.50;4993778;28;20209;-69
2023/07/02 01:00:35;;;;;;;4.73;2.33;;;;;;;14.84;100.00;99392.41;4990530;28;20222;-68
2023/07/02 01:03:00;;;;;;;3.50;1.83;;;;;;;14.83;100.00;99400.31;5013136;28;20195;-68
2023/07/02 01:05:35;;;;;;;5.10;2.30;;;;;;;14.81;100.00;99409.97;5001595;28;20282;-69
2023/07/02 01:08:02;;;;;;;4.23;2.20;;;;;;;14.69;100.00;99410.03;4998956;28;20175;-69
2023/07/02 01:10:27;;;;;;;3.30;2.33;;;;;;;14.73;100.00;99402.84;4995754;28;20673;-69
2023/07/02 01:12:54;;;;;;;3.97;2.60;;;;;;;14.74;100.00;99411.44;5012692;28;20190;-69
2023/07/02 01:15:20;;;;;;;4.57;2.33;;;;;;;14.71;100.00;99409.94;5003111;28;20202;-69
2023/07/02 01:17:46;;;;;;;5.97;2.30;;;;;;;14.73;100.00;99415.78;4999361;28;20253;-69
2023/07/02 01:20:13;;;;;;;4.13;2.43;;;;;;;14.63;100.00;99413.09;4994820;28;20206;-69
2023/07/02 01:22:38;;;;;;;3.47;2.47;;;;;;;14.67;100.00;99408.53;5014293;28;20266;-69
2023/07/02 01:25:05;;;;;;;4.57;2.53;;;;;;;14.60;100.00;99409.94;4995055;28;20314;-69
2023/07/02 01:27:31;;;;;;;4.37;2.27;;;;;;;14.57;100.00;99407.63;5012730;28;20361;-69
2023/07/02 01:29:56;;;;;;;4.50;2.50;;;;;;;14.61;100.00;99415.03;5011872;28;20666;-69
2023/07/02 01:32:22;;;;;;;4.77;2.80;;;;;;;14.58;100.00;99417.03;5016633;28;20266;-69
2023/07/02 01:34:48;;;;;;;5.70;2.60;;;;;;;14.57;100.00;99413.63;5011519;28;20211;-70
2023/07/02 01:37:18;;;;;;;5.17;2.77;;;;;;;14.53;100.00;99414.81;5001655;28;20275;-68
2023/07/02 01:39:43;;;;;;;4.40;2.67;;;;;;;14.45;100.00;99410.28;5005808;28;20632;-69
2023/07/02 01:42:11;;;;;;;4.03;2.50;;;;;;;14.37;100.00;99404.91;4992916;28;20357;-68
2023/07/02 01:44:37;;;;;;;5.50;2.47;;;;;;;14.27;100.00;99402.25;4987510;28;20208;-68
2023/07/02 01:47:03;;;;;;;4.40;2.90;;;;;;;14.14;100.00;99406.75;4991444;28;20222;-69
2023/07/02 01:49:28;;;;;;;4.30;2.83;;;;;;;14.19;100.00;99404.66;4995980;28;20202;-68
2023/07/02 01:51:55;;;;;;;3.80;2.30;;;;;;;14.11;100.00;99414.78;4994294;28;20328;-68
2023/07/02 01:54:23;;;;;;;3.33;2.67;;;;;;;14.09;100.00;99424.41;4996246;28;20187;-68
2023/07/02 01:56:49;;;;;;;5.30;2.60;;;;;;;14.13;100.00;99425.84;5000607;28;20183;-68
2023/07/02 01:59:15;;;;;;;6.80;2.83;;;;;;;14.08;100.00;99427.94;5008024;28;20301;-68
2023/07/02 02:01:41;;;;;;;6.47;3.07;;;;;;;14.15;100.00;99423.94;5003642;28;20253;-68
2023/07/02 02:04:07;;;;;;;7.03;3.50;;;;;;;14.04;100.00;99425.63;4996923;28;20631;-68
2023/07/02 02:06:32;;;;;;;5.77;3.50;;;;;;;13.97;100.00;99418.47;4992188;28;20187;-68
2023/07/02 02:08:58;;;;;;;8.50;3.43;;;;;;;13.94;100.00;99416.97;4992203;28;20183;-69
2023/07/02 02:11:23;;;;;;;6.77;3.50;;;;;;;13.99;100.00;99413.97;4984314;28;20218;-69
2023/07/02 02:13:49;;;;;;;4.77;3.50;;;;;;;13.91;100.00;99421.56;4984160;28;20168;-69
2023/07/02 02:16:14;;;;;;;3.30;2.87;;;;;;;13.92;100.00;99423.16;4992129;28;20175;-68
2023/07/02 02:18:39;;;;;;;6.73;3.17;;;;;;;13.88;100.00;99423.44;4992507;28;20179;-68
2023/07/02 02:21:05;;;;;;;9.93;3.67;;;;;;;13.90;100.00;99419.91;4983977;28;20230;-69
2023/07/02 02:23:30;;;;;;;8.80;3.80;;;;;;;13.87;100.00;99423.56;5012602;28;20591;-69
2023/07/02 02:25:55;;;;;;;6.37;3.63;;;;;;;13.80;100.00;99423.19;5000019;28;20190;-70
2023/07/02 02:28:21;;;;;;;3.63;3.03;;;;;;;13.80;100.00;99417.22;5010982;28;20250;-69
2023/07/02 02:30:46;;;;;;;5.33;3.70;;;;;;;13.78;100.00;99417.34;5007215;28;20331;-69
2023/07/02 02:33:11;;;;;;;6.80;4.20;;;;;;;13.80;100.00;99422.38;5020683;28;20214;-69
2023/07/02 02:35:36;;;;;;;6.83;3.73;;;;;;;13.75;100.00;99420.16;5009485;28;20182;-69
2023/07/02 02:38:04;;;;;;;7.93;4.13;;;;;;;13.71;100.00;99424.75;5001720;28;20202;-69
2023/07/02 02:40:29;;;;;;;9.13;4.63;;;;;;;13.79;100.00;99431.91;5003064;28;20234;-69
2023/07/02 02:42:54;;;;;;;6.63;4.43;;;;;;;13.80;100.00;99436.13;5023115;28;20531;-69
2023/07/02 02:45:19;;;;;;;5.87;3.73;;;;;;;13.86;100.00;99440.00;5013867;28;20193;-69
2023/07/02 02:47:47;;;;;;;5.77;3.83;;;;;;;13.85;100.00;99440.94;4999904;28;20192;-69
2023/07/02 02:50:13;;;;;;;9.37;4.07;;;;;;;13.86;100.00;99435.63;4996582;28;20183;-70
2023/07/02 02:52:39;;;;;;;5.10;3.83;;;;;;;13.77;100.00;99438.13;5014036;28;20646;-70
2023/07/02 02:55:06;;;;;;;5.90;4.50;;;;;;;13.77;100.00;99435.53;4996283;28;20202;-70
2023/07/02 02:57:32;;;;;;;8.70;5.30;;;;;;;13.76;100.00;99437.31;5015526;28;20289;-69
2023/07/02 02:59:58;;;;;;;7.40;4.80;;;;;;;13.84;100.00;99441.88;5000266;28;20773;-70
2023/07/02 03:02:23;;;;;;;8.50;5.43;;;;;;;13.83;100.00;99435.06;4940501;28;20255;-69
2023/07/02 03:04:49;;;;;;;8.53;4.70;;;;;;;13.81;100.00;99434.38;4976175;28;20278;-70
2023/07/02 03:07:15;;;;;;;8.10;5.03;;;;;;;13.79;100.00;99439.69;4976917;28;20198;-69
2023/07/02 03:09:40;;;;;;;7.70;5.67;;;;;;;13.81;100.00;99439.53;4977006;28;20203;-70
2023/07/02 03:12:06;;;;;;;7.63;5.17;;;;;;;13.77;100.00;99432.97;4997740;28;20635;-69
2023/07/02 03:14:31;;;;;;;10.33;5.87;;;;;;;13.82;100.00;99436.03;4994851;28;20508;-70
2023/07/02 03:16:56;;;;;;;9.90;5.70;;;;;;;13.83;100.00;99437.66;5000167;28;20588;-69
2023/07/02 03:19:22;;;;;;;9.20;5.63;;;;;;;13.83;100.00;99437.66;4996807;28;20191;-70
2023/07/02 03:21:47;;;;;;;9.10;5.37;;;;;;;13.75;100.00;99440.84;4986504;28;20235;-69
2023/07/02 03:24:13;;;;;;;8.80;5.93;;;;;;;13.75;100.00;99442.63;4997230;28;20214;-70
2023/07/02 03:26:39;;;;;;;11.40;5.73;;;;;;;13.75;100.00;99440.84;5010515;28;20218;-69
2023/07/02 03:29:04;;;;;;;8.83;5.03;;;;;;;13.78;100.00;99440.63;5015218;28;20709;-70
2023/07/02 03:31:29;;;;;;;9.97;5.90;;;;;;;13.78;100.00;99439.78;4995330;28;20340;-69
2023/07/02 03:33:55;;;;;;;12.37;5.63;;;;;;;13.87;100.00;99439.88;5013204;28;20201;-69
2023/07/02 03:36:20;;;;;;;10.47;6.37;;;;;;;13.83;100.00;99443.66;5013832;28;20191;-69
2023/07/02 03:38:45;;;;;;;12.43;5.87;;;;;;;13.87;100.00;99445.03;5004473;28;20178;-69
2023/07/02 03:41:11;;;;;;;9.17;6.00;;;;;;;13.99;100.00;99451.03;5012356;28;20232;-70
2023/07/02 03:43:36;;;;;;;8.63;6.07;;;;;;;14.02;100.00;99444.78;5013252;28;20206;-69
2023/07/02 03:46:01;;;;;;;12.57;6.00;;;;;;;14.09;100.00;99450.28;5011735;28;20646;-69
2023/07/02 03:48:26;;;;;;;9.53;5.50;;;;;;;14.18;100.00;99447.78;5003209;28;20213;-69
2023/07/02 03:50:51;;;;;;;12.13;5.83;;;;;;;14.26;100.00;99456.69;4995609;28;20277;-69
2023/07/02 03:53:17;;;;;;;11.00;6.30;;;;;;;14.21;100.00;99454.47;4993800;28;20649;-69
2023/07/02 03:55:42;;;;;;;9.50;6.37;;;;;;;14.34;100.00;99454.31;4993469;28;20191;-69
2023/07/02 03:58:07;;;;;;;11.23;6.63;;;;;;;14.42;100.00;99462.25;4993590;28;20175;-68
2023/07/02 04:00:33;;;;;;;13.53;6.60;;;;;;;14.56;100.00;99462.91;4989257;28;20578;-70
2023/07/02 04:02:58;;;;;;;11.87;5.80;;;;;;;14.57;100.00;99461.97;5025383;28;20241;-69
2023/07/02 04:05:23;;;;;;;9.70;6.20;;;;;;;14.63;100.00;99458.88;4998011;28;20275;-68
2023/07/02 04:07:48;;;;;;;10.43;5.73;;;;;;;14.60;100.00;99464.31;4993426;28;20182;-68
2023/07/02 04:10:14;;;;;;;10.23;5.43;;;;;;;14.70;100.00;99465.25;4986155;28;20190;-69
2023/07/02 04:12:39;;;;;;;11.70;6.40;;;;;;;14.79;100.00;99472.25;4991028;28;20187;-68
2023/07/02 04:15:05;;;;;;;8.23;5.60;;;;;;;14.92;100.00;99471.22;4994259;28;20188;-69
2023/07/02 04:17:30;;;;;;;8.73;6.37;;;;;;;15.04;100.00;99477.16;4994632;28;20190;-69
2023/07/02 04:19:57;;;;;;;11.33;6.27;;;;;;;15.04;100.00;99483.16;4992770;28;20611;-68
2023/07/02 04:22:22;;;;;;;8.83;6.17;;;;;;;14.99;100.00;99483.53;4999557;28;20262;-69
2023/07/02 04:24:48;;;;;;;11.80;6.23;;;;;;;14.95;100.00;99482.16;4993877;28;20231;-69
2023/07/02 04:27:17;;;;;;;8.63;6.63;;;;;;;14.99;100.00;99493.09;4994782;28;20310;-69
2023/07/02 04:29:43;;;;;;;10.10;6.10;;;;;;;14.94;100.00;99490.88;5007048;28;20193;-70
2023/07/02 04:32:09;;;;;;;7.93;5.77;;;;;;;15.07;100.00;99488.09;4991860;28;20238;-69
2023/07/02 04:34:36;;;;;;;18.03;7.77;;;;;;;14.98;100.00;99494.88;4999421;28;20210;-69
2023/07/02 04:37:01;;;;;;;9.73;6.70;;;;;;;15.01;100.00;99501.56;4990906;28;20204;-70
2023/07/02 04:39:27;;;;;;;7.63;5.77;;;;;;;14.91;100.00;99493.72;4989134;28;20210;-70
2023/07/02 04:41:52;;;;;;;7.57;5.90;;;;;;;15.01;100.00;99501.56;4986166;28;20237;-69
2023/07/02 04:44:17;;;;;;;9.90;6.43;;;;;;;15.12;100.00;99498.88;5007623;28;20552;-70
2023/07/02 04:46:43;;;;;;;9.87;5.73;;;;;;;15.18;100.00;99494.94;5013094;28;20193;-70
2023/07/02 04:49:08;;;;;;;9.30;6.53;;;;;;;14.92;100.00;99495.38;5013006;28;20273;-70
2023/07/02 04:51:33;;;;;;;13.10;6.13;;;;;;;15.00;100.00;99497.31;5015020;28;20230;-70
2023/07/02 04:53:58;;;;;;;9.23;6.17;;;;;;;15.16;100.00;99502.84;5016213;28;20183;-70
2023/07/02 04:56:24;;;;;;;9.20;6.00;;;;;;;15.08;100.00;99507.03;5012900;28;20194;-70
2023/07/02 04:58:49;;;;;;;8.87;6.27;;;;;;;15.31;100.00;99507.72;5012687;28;20206;-70
2023/07/02 05:01:14;;;;;;;11.13;7.20;;;;;;;15.32;100.00;99505.00;5012299;28;20319;-70
2023/07/02 05:03:40;;;;;;;13.83;7.40;;;;;;;15.41;100.00;99507.75;5018309;28;20202;-69
2023/07/02 05:06:05;;;;;;;11.03;6.73;;;;;;;15.39;100.00;99500.09;5012466;28;20269;-69
2023/07/02 05:08:30;;;;;;;12.30;7.97;;;;;;;15.53;100.00;99498.13;4999187;28;20358;-70
2023/07/02 05:10:55;;;;;;;11.47;7.87;;;;;;;15.72;100.00;99499.97;4990331;28;20226;-69
2023/07/02 05:13:21;;;;;;;14.60;8.33;;;;;;;15.89;100.00;99501.13;5001524;28;20180;-69
2023/07/02 05:15:46;;;;;;;17.70;8.73;;;;;;;16.25;100.00;99501.50;4991834;28;20638;-67
2023/07/02 05:18:12;;;;;;;14.07;8.37;;;;;;;16.51;100.00;99504.38;4991889;28;20662;-68
2023/07/02 05:20:37;;;;;;;17.03;9.27;;;;;;;16.75;100.00;99511.72;4975088;28;20238;-67
2023/07/02 05:23:02;;;;;;;13.83;9.30;;;;;;;16.98;100.00;99511.47;5004309;28;20198;-68
2023/07/02 05:25:28;;;;;;;11.50;9.03;;;;;;;17.33;100.00;99512.59;4992499;28;20275;-68
2023/07/02 05:27:53;;;;;;;18.67;10.33;;;;;;;17.59;100.00;99519.78;5005061;28;20250;-68
2023/07/02 05:30:18;;;;;;;15.77;9.50;;;;;;;17.96;100.00;99518.09;4984333;28;20179;-68
2023/07/02 05:32:43;;;;;;;12.73;9.00;;;;;;;18.01;100.00;99515.88;5005973;28;20548;-69
2023/07/02 05:35:09;;;;;;;12.87;8.90;;;;;;;18.00;100.00;99522.88;4992560;28;20190;-69
2023/07/02 05:37:34;;;;;;;12.50;8.87;;;;;;;18.05;100.00;99532.84;4985401;28;20655;-69
2023/07/02 05:39:59;;;;;;;14.13;9.50;;;;;;;17.94;100.00;99522.63;4992109;28;20191;-69
2023/07/02 05:42:24;;;;;;;14.33;9.37;;;;;;;17.82;100.00;99522.78;4998019;28;20647;-69
2023/07/02 05:44:50;;;;;;;17.03;9.40;;;;;;;18.07;100.00;99530.91;4992260;28;20199;-78
2023/07/02 05:47:15;;;;;;;11.67;8.53;;;;;;;18.52;100.00;99526.66;4991390;28;20180;-79
2023/07/02 05:49:42;;;;;;;13.57;9.00;;;;;;;18.77;100.00;99538.06;4992838;28;20191;-81
2023/07/02 05:52:07;;;;;;;12.47;8.50;;;;;;;18.77;100.00;99532.88;4984614;28;20241;-81
2023/07/02 05:54:33;;;;;;;14.33;9.07;;;;;;;18.88;100.00;99540.44;5004590;28;20179;-80
2023/07/02 05:56:58;;;;;;;11.33;9.73;;;;;;;19.02;100.00;99535.69;4992494;28;20180;-80
2023/07/02 05:59:23;;;;;;;14.43;8.67;;;;;;;19.03;100.00;99538.13;4992750;28;20183;-79
2023/07/02 06:01:48;;;;;;;13.43;9.37;;;;;;;18.90;100.00;99539.47;5009582;28;20222;-81
2023/07/02 06:04:14;;;;;;;13.23;9.17;;;;;;;18.86;100.00;99544.16;5009944;28;20574;-84
2023/07/02 06:06:39;;;;;;;15.70;9.60;;;;;;;18.73;100.00;99549.78;5008725;28;20190;-85
2023/07/02 06:09:04;;;;;;;13.37;9.27;;;;;;;18.51;100.00;99549.25;4997047;28;20191;-76
2023/07/02 06:11:30;;;;;;;13.57;9.67;;;;;;;18.33;100.00;99549.25;4997088;28;20234;-78
2023/07/02 06:13:55;;;;;;;15.30;9.97;;;;;;;18.11;100.00;99552.25;4998254;28;20194;-78
2023/07/02 06:16:20;;;;;;;15.80;10.47;;;;;;;18.30;100.00;99553.94;4997606;28;20550;-75
2023/07/02 06:18:46;;;;;;;15.17;10.70;;;;;;;18.34;100.00;99558.69;4990323;28;20187;-77
2023/07/02 06:21:11;;;;;;;15.00;10.20;;;;;;;18.32;100.00;99555.41;4990849;28;20430;-75
2023/07/02 06:23:43;;;;;;;15.77;10.23;;;;;;;18.38;100.00;99565.25;5001485;28;20222;-78
2023/07/02 06:26:08;;;;;;;20.07;11.77;;;;;;;18.30;100.00;99559.94;5001947;28;20174;-79
2023/07/02 06:28:34;;;;;;;15.93;11.03;;;;;;;18.11;100.00;99560.06;5011073;28;20183;-75
2023/07/02 06:30:59;;;;;;;14.80;10.87;;;;;;;18.52;100.00;99561.31;5008677;28;20230;-81
2023/07/02 06:33:24;;;;;;;16.93;11.03;;;;;;;19.52;100.00;99566.31;5017526;28;20256;-77
2023/07/02 06:35:49;;;;;;;17.87;10.67;;;;;;;19.74;100.00;99564.13;5010696;28;20550;-76
2023/07/02 06:38:15;;;;;;;17.80;10.80;;;;;;;19.39;100.00;99573.72;5000992;28;20274;-76
2023/07/02 06:40:40;;;;;;;21.87;11.90;;;;;;;18.99;100.00;99569.84;5002695;28;20323;-77
2023/07/02 06:43:05;;;;;;;18.97;11.47;;;;;;;18.94;100.00;99570.34;5017791;28;20194;-76
2023/07/02 06:45:30;;;;;;;18.03;11.27;;;;;;;19.13;100.00;99565.91;5009272;28;20194;-73
2023/07/02 06:47:56;;;;;;;12.57;10.73;;;;;;;19.88;100.00;99565.34;5008095;28;20187;-75
2023/07/02 06:50:22;;;;;;;19.67;12.17;;;;;;;21.21;91.73;99561.94;5002722;28;20747;-73
2023/07/02 06:52:48;;;;;;;18.23;11.27;;;;;;;22.09;86.32;99562.00;5009172;28;20574;-78
2023/07/02 06:55:13;;;;;;;15.33;11.93;;;;;;;22.15;83.85;99566.53;5001115;28;20191;-79
2023/07/02 06:57:45;;;;;;;19.83;11.77;;;;;;;22.00;84.42;99570.88;4996929;28;20261;-79
2023/07/02 07:00:14;;;;;;;12.77;10.23;;;;;;;23.27;73.82;99572.31;4978077;28;20178;-64
2023/07/02 07:02:39;;;;;;;16.43;11.13;;;;;;;25.23;63.10;99566.31;5014298;28;20183;-65
2023/07/02 07:05:05;;;;;;;14.70;10.45;;;;;;;26.46;52.46;99576.19;4999837;28;20211;-65
2023/07/02 07:07:32;;;;;;;18.20;11.02;;;;;;;26.66;49.31;99573.56;4974904;28;20556;-65
2023/07/02 07:09:57;;;;;;;15.00;11.27;;;;;;;27.05;49.50;99584.34;4992851;28;20265;-65
2023/07/02 07:12:22;;;;;;;16.27;11.50;;;;;;;28.28;44.83;99590.72;4979601;28;20267;-65
2023/07/02 07:14:47;;;;;;;14.13;11.25;;;;;;;27.27;46.62;99594.69;4990301;28;20192;-65
2023/07/02 07:17:12;;;;;;;15.30;10.38;;;;;;;26.20;51.85;99588.31;4999048;28;20301;-65
2023/07/02 07:19:38;;;;;;;13.07;10.48;;;;;;;25.86;53.31;99591.81;4993616;28;20190;-65
2023/07/02 07:22:03;;;;;;;15.98;11.98;;;;;;;25.83;52.41;99592.22;4983544;28;20235;-66
2023/07/02 07:24:28;;;;;;;14.85;11.43;;;;;;;26.04;51.50;99599.97;4991513;28;20211;-65
2023/07/02 07:26:54;;;;;;;13.82;11.00;;;;;;;26.52;49.83;99590.38;4991911;28;20249;-65
2023/07/02 07:29:19;;;;;;;13.18;10.30;;;;;;;27.09;46.23;99597.94;4992583;28;20179;-65
2023/07/02 07:31:46;;;;;;;17.13;11.23;;;;;;;26.60;47.31;99600.75;4977978;28;20218;-64
2023/07/02 07:34:11;;;;;;;15.38;11.60;;;;;;;25.68;52.28;99603.69;4991285;28;20206;-64
2023/07/02 07:36:37;;;;;;;15.32;10.63;;;;;;;26.26;51.56;99597.25;4995029;28;20221;-65
2023/07/02 07:39:02;;;;;;;13.90;11.10;;;;;;;26.09;49.73;99600.22;4991524;28;20614;-64
2023/07/02 07:41:27;;;;;;;14.10;10.73;;;;;;;25.84;52.31;99602.53;4994252;28;20298;-65
2023/07/02 07:43:53;;;;;;;12.55;10.38;;;;;;;24.94;58.29;99592.66;5010397;28;20203;-66
2023/07/02 07:46:19;;;;;;;13.93;11.13;;;;;;;24.76;59.92;99597.56;5008785;28;20556;-64
2023/07/02 07:48:44;;;;;;;13.93;11.18;;;;;;;26.21;54.36;99597.84;4995761;28;20183;-64
2023/07/02 07:51:09;;;;;;;12.25;10.60;;;;;;;28.41;44.69;99596.94;4993546;28;20737;-66
2023/07/02 07:53:38;;;;;;;19.75;10.85;;;;;;;28.27;43.41;99599.66;5001746;28;20204;-64
2023/07/02 07:56:03;;;;;;;11.98;10.68;;;;;;;29.38;42.07;99603.72;4994329;28;20246;-64
2023/07/02 07:58:29;;;;;;;25.27;11.63;;;;;;;30.67;38.53;99601.91;4993357;28;20188;-64
2023/07/02 08:00:54;;;;;;;57.65;11.18;;;;;;;31.75;34.73;99601.66;4991157;28;20309;-64
2023/07/02 08:03:19;;;;;;;13.75;10.93;;;;;;;32.83;33.25;99611.56;5003420;28;20223;-65
2023/07/02 08:05:44;;;;;;;25.27;12.05;;;;;;;32.57;33.11;99612.19;4994530;28;20198;-65
2023/07/02 08:08:09;;;;;;;28.15;11.63;;;;;;;32.62;33.48;99606.94;4994906;28;20187;-65
2023/07/02 08:10:35;;;;;;;13.45;11.30;;;;;;;30.59;34.55;99605.72;4986566;28;20226;-65
2023/07/02 08:13:00;;;;;;;13.13;10.40;;;;;;;30.02;35.88;99612.19;5005471;28;20554;-64
2023/07/02 08:15:25;;;;;;;16.17;11.07;;;;;;;28.23;40.45;99606.41;4993830;28;20178;-64
2023/07/02 08:17:54;;;;;;;15.00;11.73;;;;;;;27.32;43.28;99597.53;4993358;28;20191;-66
2023/07/02 08:20:19;;;;;;;15.55;11.73;;;;;;;26.03;47.45;99590.44;4986337;28;20191;-65
2023/07/02 08:22:45;;;;;;;14.50;11.55;;;;;;;25.06;53.83;99592.13;5008134;28;20214;-66
2023/07/02 08:25:10;;;;;;;14.90;11.65;;;;;;;24.14;59.64;99595.28;4994030;28;20217;-64
2023/07/02 08:27:35;;;;;;;16.55;12.02;;;;;;;24.27;64.07;99599.06;4993071;28;20215;-65
2023/07/02 08:30:01;;;;;;;15.10;10.68;;;;;;;24.92;56.51;99589.38;4994951;28;20598;-65
2023/07/02 08:32:26;;;;;;;12.43;10.55;;;;;;;26.09;51.71;99596.78;4989573;28;20232;-65
2023/07/02 08:34:51;;;;;;;15.15;11.38;;;;;;;25.32;54.82;99603.81;4990396;28;20207;-64
2023/07/02 08:37:21;;;;;;;11.40;9.88;;;;;;;24.12;56.26;99601.72;4987413;28;20192;-63
2023/07/02 08:39:46;;;;;;;17.35;11.50;;;;;;;24.06;63.24;99605.88;4990028;28;20369;-64
2023/07/02 08:42:11;;;;;;;13.32;10.75;;;;;;;23.88;64.80;99608.06;4984079;28;20378;-66
2023/07/02 08:44:37;;;;;;;15.05;11.20;;;;;;;24.18;64.12;99601.78;5006072;28;20363;-64
2023/07/02 08:47:03;;;;;;;13.20;10.83;;;;;;;24.67;60.77;99596.84;5006167;28;20583;-64
2023/07/02 08:49:28;;;;;;;13.88;10.52;;;;;;;24.63;58.47;99599.03;4994103;28;20215;-65
2023/07/02 08:51:54;;;;;;;14.85;10.80;;;;;;;25.18;53.50;99605.56;4997988;28;20672;-64
2023/07/02 08:54:20;;;;;;;12.35;10.18;;;;;;;24.87;55.35;99609.38;4994124;28;20195;-65
2023/07/02 08:56:46;;;;;;;14.65;10.65;;;;;;;24.56;58.79;99610.47;4992046;28;20183;-65
2023/07/02 08:59:12;;;;;;;13.75;10.80;;;;;;;23.30;64.74;99613.94;4992407;28;20551;-64
2023/07/02 09:01:51;;;;;;;21.03;11.60;;;;;;;22.81;71.95;99618.56;4995721;28;20273;-64
2023/07/02 09:04:23;;;;;;;17.67;12.27;;;;;;;22.65;74.86;99619.50;5005418;28;20665;-65
2023/07/02 09:06:48;;;;;;;14.70;11.07;;;;;;;22.80;70.34;99616.94;5011342;28;20265;-64
2023/07/02 09:09:14;;;;;;;15.00;9.50;;;;;;;23.16;59.67;99616.34;5012945;28;20290;-64
2023/07/02 09:11:51;;;;;;;15.37;9.97;;;;;;;25.59;49.00;99618.03;5014487;28;20225;-65
2023/07/02 09:14:30;;;;;;;15.75;10.30;;;;;;;27.29;42.18;99617.22;5001306;28;20222;-64
2023/07/02 09:17:06;;;;;;;21.00;10.35;;;;;;;29.25;37.96;99629.28;4981531;28;20700;-66
2023/07/02 09:19:32;;;;;;;12.75;10.30;;;;;;;27.95;40.62;99631.31;4992349;28;20639;-64
2023/07/02 09:22:01;;;;;;;13.45;10.43;;;;;;;28.61;39.47;99636.47;4997952;28;20237;-64
2023/07/02 09:24:29;;;;;;;14.98;10.10;;;;;;;29.12;36.65;99632.84;4991481;28;20550;-65
2023/07/02 09:26:56;;;;;;;14.48;9.77;;;;;;;29.41;35.52;99640.34;4993197;28;20270;-65
2023/07/02 09:29:31;;;;;;;13.65;10.23;;;;;;;28.40;37.47;99645.56;4993319;28;20263;-66
2023/07/02 09:32:01;;;;;;;12.32;10.32;;;;;;;26.70;40.94;99640.72;4984987;28;20225;-65
2023/07/02 09:34:38;;;;;;;16.00;10.60;;;;;;;26.68;42.50;99640.13;4991469;28;20258;-65
2023/07/02 09:37:07;;;;;;;11.63;8.82;;;;;;;26.07;44.08;99635.69;4993433;28;20246;-66
2023/07/02 09:39:35;;;;;;;12.93;10.20;;;;;;;25.24;46.01;99642.47;4992377;28;20183;-65
2023/07/02 09:42:04;;;;;;;18.67;10.60;;;;;;;24.54;50.02;99649.28;4984824;28;20355;-65
2023/07/02 09:44:31;;;;;;;14.50;10.93;;;;;;;23.22;56.13;99648.94;4990932;28;20211;-66
2023/07/02 09:47:07;;;;;;;16.65;10.55;;;;;;;22.88;58.53;99658.00;5000137;28;20668;-65
2023/07/02 09:49:34;;;;;;;18.48;10.57;;;;;;;22.94;58.42;99657.31;4997146;28;20262;-64
2023/07/02 09:52:08;;;;;;;18.37;10.30;;;;;;;23.24;55.26;99644.31;4984635;28;20214;-63
2023/07/02 09:54:33;;;;;;;17.17;9.70;;;;;;;25.53;47.51;99642.50;5022470;28;20171;-63
2023/07/02 09:56:59;;;;;;;14.27;9.77;;;;;;;26.91;41.18;99636.31;5010616;28;20186;-65
2023/07/02 09:59:25;;;;;;;11.52;10.13;;;;;;;28.20;38.75;99641.19;5011710;28;20175;-66
2023/07/02 10:01:51;;;;;;;12.27;9.27;;;;;;;29.87;34.82;99646.19;5003506;28;20309;-66
2023/07/02 10:04:18;;;;;;;14.45;10.85;;;;;;;30.35;34.09;99650.72;5009283;28;20616;-65
2023/07/02 10:06:48;;;;;;;12.95;9.77;;;;;;;30.11;33.59;99652.47;5010732;28;20182;-65
2023/07/02 10:09:15;;;;;;;11.13;9.77;;;;;;;29.77;33.70;99659.94;5010214;28;20282;-65
2023/07/02 10:11:40;;;;;;;10.25;8.57;;;;;;;30.77;31.68;99649.13;5014128;28;20233;-65
2023/07/02 10:14:05;;;;;;;15.90;9.48;;;;;;;31.83;30.17;99646.47;5013536;28;20187;-66
2023/07/02 10:16:31;;;;;;;11.43;9.70;;;;;;;32.07;30.17;99642.94;5011513;28;20738;-65
2023/07/02 10:19:12;;;;;;;9.45;7.78;;;;;;;29.82;30.88;99648.69;5010889;28;20186;-64
2023/07/02 10:21:38;;;;;;;9.75;8.05;;;;;;;30.72;31.08;99644.50;5001245;28;20747;-66
2023/07/02 10:24:17;;;;;;;11.85;9.38;;;;;;;30.64;30.25;99648.28;5006315;28;20206;-66
2023/07/02 10:26:59;;;;;;;11.18;9.15;;;;;;;28.76;32.48;99647.59;5004958;28;20258;-66
2023/07/02 10:29:26;;;;;;;13.80;9.20;;;;;;;26.97;35.37;99635.50;4991223;28;20191;-65
2023/07/02 10:31:52;;;;;;;11.10;9.55;;;;;;;25.99;38.33;99643.75;4984154;28;20717;-66
2023/07/02 10:34:34;;;;;;;11.10;9.48;;;;;;;26.22;37.12;99636.38;4992872;28;20746;-66
2023/07/02 10:37:01;;;;;;;11.20;9.75;;;;;;;26.16;38.25;99633.69;4980293;28;20179;-65
2023/07/02 10:39:29;;;;;;;14.68;11.10;;;;;;;25.92;39.56;99639.28;4990743;28;20207;-66
2023/07/02 10:42:03;;;;;;;12.77;10.40;;;;;;;25.52;38.54;99640.88;4991112;28;20221;-65
2023/07/02 10:44:29;;;;;;;13.05;10.73;;;;;;;25.17;37.98;99638.13;5010264;28;20205;-65
2023/07/02 10:46:55;;;;;;;11.20;9.93;;;;;;;26.52;36.66;99629.94;5010362;28;20198;-65
2023/07/02 10:49:29;;;;;;;11.57;9.65;;;;;;;27.57;35.38;99639.94;5006288;28;20192;-66
2023/07/02 10:52:03;;;;;;;18.05;11.25;;;;;;;28.12;35.16;99654.63;4996411;28;20226;-66
2023/07/02 10:54:58;;;;;;;13.18;10.27;;;;;;;27.90;33.84;99649.63;4979777;28;20180;-66
2023/07/02 10:57:23;;;;;;;13.25;11.23;;;;;;;27.28;35.53;99638.56;4931788;29;20228;-66
2023/07/02 10:59:49;;;;;;;13.65;10.65;;;;;;;25.99;35.94;99641.94;4916006;29;20582;-64
2023/07/02 11:02:15;;;;;;;13.25;11.18;;;;;;;26.13;37.50;99644.66;4894056;29;20776;-67
2023/07/02 11:04:40;;;;;;;13.05;10.02;;;;;;;26.25;36.56;99641.25;4932789;29;20253;-65
2023/07/02 11:07:06;;;;;;;20.63;11.35;;;;;;;24.73;39.73;99647.88;4935199;29;20189;-65
2023/07/02 11:09:32;;;;;;;14.32;12.07;;;;;;;24.52;42.63;99643.41;4935794;29;20189;-66
2023/07/02 11:11:59;;;;;;;17.13;11.70;;;;;;;24.84;42.34;99651.84;4925983;29;20719;-65
2023/07/02 11:14:32;;;;;;;16.25;11.20;;;;;;;25.06;41.61;99636.84;4919231;29;20272;-65
2023/07/02 11:16:59;;;;;;;15.60;11.75;;;;;;;25.25;40.71;99643.28;4907080;29;20262;-66